Terminal Aerodrome Forecast
Issued by NWS

Home | Current Version | Previous Version | Text Only | Print | Product List | Glossary On
Versions: 1 2 3 4 5 6 7 8 9 10 11 12 13 14 15 16 17 18 19 20 21 22 23 24 25 26 27 28 29
000
FTUS43 KDVN 281000 AAA
TAFCID
TAF AMD
KCID 281000Z 2810/2906 12006KT P6SM VCTS SCT090CB OVC250
      TEMPO 2810/2813 3SM TSRA BR BKN035CB OVC060
     FM281400 14010KT P6SM SCT050 PROB30 2820/2823 4SM TSRA BKN035CB
     FM282300 15008KT P6SM BKN050
      TEMPO 2823/2902 3SM TSRA BKN040CB=

USA.gov is the U.S. government's official web portal to all federal, state and local government web resources and services.